Time;durP1;ratioP1;P1;durP2;ratioP2;P2;SDS_P1;SDS_P2;PMS_P1;PMS_P2;Temp;Humidity;BMP_temperature;BMP_pressure;BME280_temperature;BME280_humidity;BME280_pressure;Samples;Min_cycle;Max_cycle;Signal;HPM_P1;HPM_P2
2022/03/22 00:00:28;;;;;;;35.57;26.67;;;;;;;;;;5053800;28;20217;-64
2022/03/22 00:02:54;;;;;;;31.23;22.70;;;;;;;;;;5035813;28;20194;-64
2022/03/22 00:05:20;;;;;;;30.77;20.20;;;;;;;;;;5053653;28;20232;-64
2022/03/22 00:07:46;;;;;;;28.47;20.77;;;;;;;;;;5054229;28;20174;-64
2022/03/22 00:10:12;;;;;;;27.87;19.37;;;;;;;;;;5053810;28;20178;-64
2022/03/22 00:12:38;;;;;;;21.13;15.77;;;;;;;;;;5053937;28;20224;-64
2022/03/22 00:15:04;;;;;;;24.17;17.60;;;;;;;;;;5053427;28;20285;-64
2022/03/22 00:17:30;;;;;;;19.47;14.70;;;;;;;;;;5053380;28;20177;-64
2022/03/22 00:19:56;;;;;;;24.90;15.37;;;;;;;;;;5053389;28;20581;-64
2022/03/22 00:22:24;;;;;;;21.23;15.70;;;;;;;;;;5053576;28;20171;-63
2022/03/22 00:24:51;;;;;;;21.07;14.97;;;;;;;;;;5036463;28;20261;-64
2022/03/22 00:27:17;;;;;;;22.23;14.83;;;;;;;;;;5053337;28;20171;-64
2022/03/22 00:29:43;;;;;;;20.47;15.43;;;;;;;;;;5035348;28;20193;-64
2022/03/22 00:32:09;;;;;;;20.87;14.83;;;;;;;;;;5053229;28;20182;-64
2022/03/22 00:34:44;;;;;;;21.17;15.43;;;;;;;;;;5053028;28;20225;-64
2022/03/22 00:37:10;;;;;;;23.43;16.37;;;;;;;;;;5053362;28;20245;-64
2022/03/22 00:39:36;;;;;;;25.07;16.03;;;;;;;;;;5053427;28;20210;-64
2022/03/22 00:42:02;;;;;;;25.10;16.43;;;;;;;;;;5053452;28;20237;-65
2022/03/22 00:44:27;;;;;;;23.30;15.97;;;;;;;;;;5052902;28;20649;-63
2022/03/22 00:46:54;;;;;;;27.83;18.30;;;;;;;;;;5053718;28;20578;-64
2022/03/22 00:49:19;;;;;;;26.63;18.80;;;;;;;;;;5035351;28;20178;-64
2022/03/22 00:51:47;;;;;;;26.00;16.70;;;;;;;;;;5035177;28;20269;-64
2022/03/22 00:54:13;;;;;;;24.93;17.40;;;;;;;;;;5052921;28;20575;-64
2022/03/22 00:56:39;;;;;;;24.57;16.37;;;;;;;;;;5053043;28;20261;-64
2022/03/22 01:01:50;;;;;;;29.07;19.80;;;;;;;;;;5053325;28;20225;-64
2022/03/22 01:04:16;;;;;;;112.87;55.23;;;;;;;;;;5034988;28;20202;-61
2022/03/22 01:06:42;;;;;;;66.87;35.17;;;;;;;;;;5035046;28;20182;-63
2022/03/22 01:09:10;;;;;;;53.77;31.57;;;;;;;;;;5053029;28;20586;-63
2022/03/22 01:11:36;;;;;;;39.00;23.33;;;;;;;;;;5035122;28;20182;-61
2022/03/22 01:14:02;;;;;;;37.88;25.65;;;;;;;;;;5051625;28;20377;-63
2022/03/22 01:16:28;;;;;;;37.53;26.48;;;;;;;;;;5033611;28;20413;-63
2022/03/22 01:18:54;;;;;;;23.80;17.47;;;;;;;;;;5034897;28;20206;-63
2022/03/22 01:21:20;;;;;;;24.27;16.30;;;;;;;;;;5035421;28;20181;-63
2022/03/22 01:23:46;;;;;;;24.20;17.20;;;;;;;;;;5034890;28;20282;-63
2022/03/22 01:26:12;;;;;;;21.73;16.23;;;;;;;;;;5053611;28;20189;-61
2022/03/22 01:28:38;;;;;;;23.63;16.77;;;;;;;;;;5034844;28;20231;-63
2022/03/22 01:31:04;;;;;;;26.23;15.83;;;;;;;;;;5035189;28;20190;-63
2022/03/22 01:33:30;;;;;;;25.00;16.50;;;;;;;;;;5052631;28;20198;-64
2022/03/22 01:35:56;;;;;;;21.13;14.83;;;;;;;;;;5052541;28;20205;-64
2022/03/22 01:38:23;;;;;;;24.53;16.73;;;;;;;;;;5053163;28;20243;-64
2022/03/22 01:40:49;;;;;;;23.47;16.33;;;;;;;;;;5053066;28;20174;-64
2022/03/22 01:43:15;;;;;;;21.20;16.13;;;;;;;;;;5053471;28;20210;-64
2022/03/22 01:45:41;;;;;;;23.80;17.33;;;;;;;;;;5035570;28;20187;-64
2022/03/22 01:48:08;;;;;;;22.70;17.80;;;;;;;;;;5036066;28;20255;-63
2022/03/22 01:50:37;;;;;;;29.53;17.33;;;;;;;;;;5054029;28;20265;-64
2022/03/22 01:53:03;;;;;;;23.97;17.50;;;;;;;;;;5054214;28;20287;-64
2022/03/22 01:55:29;;;;;;;22.83;16.63;;;;;;;;;;5038561;28;20228;-64
2022/03/22 01:57:56;;;;;;;26.27;16.63;;;;;;;;;;5056240;28;20193;-64
2022/03/22 02:00:22;;;;;;;26.20;16.83;;;;;;;;;;5056176;28;20240;-64
2022/03/22 02:05:51;;;;;;;26.53;16.90;;;;;;;;;;5056266;28;20224;-64
2022/03/22 02:08:18;;;;;;;21.77;15.53;;;;;;;;;;5056443;28;20155;-64
2022/03/22 02:10:44;;;;;;;22.73;16.83;;;;;;;;;;5038130;28;20190;-65
2022/03/22 02:13:10;;;;;;;26.30;17.07;;;;;;;;;;5055747;28;20229;-64
2022/03/22 02:15:36;;;;;;;24.67;17.60;;;;;;;;;;5055971;28;20693;-65
2022/03/22 02:18:02;;;;;;;23.13;17.70;;;;;;;;;;5056043;28;20174;-64
2022/03/22 02:20:28;;;;;;;23.83;16.90;;;;;;;;;;5055534;28;20708;-64
2022/03/22 02:23:04;;;;;;;27.90;18.23;;;;;;;;;;5037675;28;20216;-64
2022/03/22 02:25:30;;;;;;;25.53;18.10;;;;;;;;;;5055593;28;20178;-64
2022/03/22 02:27:56;;;;;;;32.80;19.20;;;;;;;;;;5037737;28;20178;-64
2022/03/22 02:30:22;;;;;;;27.13;18.03;;;;;;;;;;5037611;28;20197;-65
2022/03/22 02:32:50;;;;;;;27.77;19.10;;;;;;;;;;5037441;28;20198;-64
2022/03/22 02:35:16;;;;;;;32.23;18.80;;;;;;;;;;5037584;28;20260;-64
2022/03/22 02:37:42;;;;;;;31.20;19.27;;;;;;;;;;5055954;28;20178;-64
2022/03/22 02:40:09;;;;;;;25.53;19.30;;;;;;;;;;5055485;28;20670;-64
2022/03/22 02:42:34;;;;;;;27.43;18.80;;;;;;;;;;5037371;28;20219;-64
2022/03/22 02:45:00;;;;;;;25.37;18.20;;;;;;;;;;5055669;28;20167;-64
2022/03/22 02:47:26;;;;;;;25.43;16.90;;;;;;;;;;5055566;28;20542;-64
2022/03/22 02:49:52;;;;;;;20.17;15.90;;;;;;;;;;5055369;28;20182;-64
2022/03/22 02:52:18;;;;;;;25.40;15.30;;;;;;;;;;5037451;28;20174;-64
2022/03/22 02:54:44;;;;;;;22.37;16.53;;;;;;;;;;5055229;28;20611;-64
2022/03/22 02:57:10;;;;;;;23.07;16.73;;;;;;;;;;5055515;28;20175;-64
2022/03/22 02:59:36;;;;;;;23.17;17.57;;;;;;;;;;5055035;28;20202;-64
2022/03/22 03:02:05;;;;;;;26.90;17.10;;;;;;;;;;5055035;28;20178;-64
2022/03/22 03:04:31;;;;;;;20.70;14.97;;;;;;;;;;5054138;28;20195;-64
2022/03/22 03:06:56;;;;;;;21.00;13.43;;;;;;;;;;5037783;28;20547;-64
2022/03/22 03:09:22;;;;;;;20.43;14.60;;;;;;;;;;5055362;28;20175;-64
2022/03/22 03:11:48;;;;;;;22.27;15.17;;;;;;;;;;5037347;28;20272;-64
2022/03/22 03:16:59;;;;;;;21.87;14.87;;;;;;;;;;5055494;28;20206;-64
2022/03/22 03:19:25;;;;;;;24.10;17.45;;;;;;;;;;5054418;28;20373;-64
2022/03/22 03:21:51;;;;;;;25.90;19.38;;;;;;;;;;5053569;28;20392;-64
2022/03/22 03:24:17;;;;;;;27.65;19.83;;;;;;;;;;5053693;28;20389;-64
2022/03/22 03:26:43;;;;;;;43.30;29.08;;;;;;;;;;5053621;28;20385;-64
2022/03/22 03:29:09;;;;;;;30.57;22.27;;;;;;;;;;5053430;28;20377;-64
2022/03/22 03:31:35;;;;;;;33.70;23.92;;;;;;;;;;5035550;28;20383;-64
2022/03/22 03:34:01;;;;;;;34.70;25.97;;;;;;;;;;5053645;28;20413;-63
2022/03/22 03:36:28;;;;;;;32.45;25.42;;;;;;;;;;5053157;28;20441;-64
2022/03/22 03:38:53;;;;;;;36.45;26.40;;;;;;;;;;5053134;28;20373;-64
2022/03/22 03:47:03;;;;;;;28.00;21.08;;;;;;;;;;5053031;28;20416;-64
2022/03/22 03:47:07;;;;;;;26.92;20.98;;;;;;;;;;5053180;28;20424;-64
2022/03/22 03:49:37;;;;;;;23.70;18.63;;;;;;;;;;5053377;28;20435;-64
2022/03/22 03:52:04;;;;;;;23.75;17.55;;;;;;;;;;5035263;28;20512;-64
2022/03/22 03:54:30;;;;;;;23.65;16.55;;;;;;;;;;5035629;28;20385;-64
2022/03/22 03:56:56;;;;;;;23.42;18.55;;;;;;;;;;5079224;22;20909;-63
2022/03/22 03:59:22;;;;;;;21.27;16.48;;;;;;;;;;5053063;28;20424;-63
2022/03/22 04:01:48;;;;;;;21.58;17.02;;;;;;;;;;5053237;28;20729;-63
2022/03/22 04:04:14;;;;;;;23.23;16.98;;;;;;;;;;5053199;28;20453;-63
2022/03/22 04:06:39;;;;;;;23.83;17.40;;;;;;;;;;5035178;28;20461;-63
2022/03/22 04:09:05;;;;;;;21.90;16.70;;;;;;;;;;5053075;28;20370;-63
2022/03/22 04:11:31;;;;;;;20.65;16.13;;;;;;;;;;5053324;28;20378;-64
2022/03/22 04:13:57;;;;;;;22.50;17.50;;;;;;;;;;5053502;28;20753;-63
2022/03/22 04:16:23;;;;;;;20.85;16.88;;;;;;;;;;5052669;28;20404;-63
2022/03/22 04:18:50;;;;;;;21.20;16.20;;;;;;;;;;5034885;28;20751;-63
2022/03/22 04:21:16;;;;;;;18.85;15.40;;;;;;;;;;5052914;28;20373;-64
2022/03/22 04:23:42;;;;;;;21.38;16.52;;;;;;;;;;5052513;28;20370;-63
2022/03/22 04:26:08;;;;;;;20.70;15.27;;;;;;;;;;5053013;28;20439;-63
2022/03/22 04:34:03;;;;;;;21.02;15.77;;;;;;;;;;5052449;28;20517;-63
2022/03/22 04:36:29;;;;;;;20.13;15.48;;;;;;;;;;5034557;28;20496;-63
2022/03/22 04:38:56;;;;;;;15.90;13.70;;;;;;;;;;5034999;28;20394;-62
2022/03/22 04:41:23;;;;;;;18.42;13.75;;;;;;;;;;5034610;28;20385;-61
2022/03/22 04:43:49;;;;;;;16.67;13.30;;;;;;;;;;5052762;28;20439;-61
2022/03/22 04:46:18;;;;;;;16.52;12.90;;;;;;;;;;5052068;28;20389;-62
2022/03/22 04:48:44;;;;;;;17.13;12.95;;;;;;;;;;5034627;28;20392;-61
2022/03/22 04:56:43;;;;;;;18.73;16.17;;;;;;;;;;5052267;28;20972;-61
2022/03/22 04:59:09;;;;;;;19.45;16.10;;;;;;;;;;5052821;28;20400;-61
2022/03/22 05:01:35;;;;;;;21.38;16.67;;;;;;;;;;5052134;28;20373;-62
2022/03/22 05:04:01;;;;;;;18.48;14.48;;;;;;;;;;5052478;28;20428;-60
2022/03/22 05:06:28;;;;;;;23.17;18.73;;;;;;;;;;5052410;28;20393;-61
2022/03/22 05:08:54;;;;;;;24.63;19.63;;;;;;;;;;5052409;28;20378;-61
2022/03/22 05:11:24;;;;;;;32.00;23.40;;;;;;;;;;5052125;28;20385;-62
2022/03/22 05:13:49;;;;;;;26.73;20.85;;;;;;;;;;5052202;28;20766;-62
2022/03/22 05:16:15;;;;;;;26.35;20.63;;;;;;;;;;5051949;28;20402;-62
2022/03/22 05:18:42;;;;;;;28.30;22.00;;;;;;;;;;5052279;28;20370;-62
2022/03/22 05:21:08;;;;;;;26.20;20.40;;;;;;;;;;5052226;28;20801;-62
2022/03/22 05:23:34;;;;;;;24.23;19.33;;;;;;;;;;5052979;28;20369;-62
2022/03/22 05:26:00;;;;;;;24.73;19.05;;;;;;;;;;5052101;28;20424;-61
2022/03/22 05:28:26;;;;;;;35.15;23.67;;;;;;;;;;5054215;28;20420;-63
2022/03/22 05:30:52;;;;;;;31.52;25.20;;;;;;;;;;5055987;28;20958;-61
2022/03/22 05:33:18;;;;;;;29.05;20.95;;;;;;;;;;5037969;28;20404;-61
2022/03/22 05:35:44;;;;;;;26.63;21.23;;;;;;;;;;5055700;28;20428;-63
2022/03/22 05:38:10;;;;;;;30.15;22.10;;;;;;;;;;5055790;28;20381;-61
2022/03/22 05:40:39;;;;;;;23.92;20.50;;;;;;;;;;5056334;28;20452;-61
2022/03/22 05:43:05;;;;;;;31.63;23.53;;;;;;;;;;5055719;28;20932;-61
2022/03/22 05:45:31;;;;;;;30.88;23.45;;;;;;;;;;5037808;28;20739;-62
2022/03/22 05:48:00;;;;;;;28.85;22.40;;;;;;;;;;5055734;28;20412;-62
2022/03/22 05:50:27;;;;;;;27.95;21.02;;;;;;;;;;5037753;28;20420;-62
2022/03/22 05:52:53;;;;;;;25.13;17.90;;;;;;;;;;5055697;28;20382;-62
2022/03/22 05:55:19;;;;;;;25.20;18.97;;;;;;;;;;5055852;28;20408;-62
2022/03/22 05:57:46;;;;;;;29.42;23.38;;;;;;;;;;5055778;28;20396;-62
2022/03/22 06:00:13;;;;;;;26.33;19.05;;;;;;;;;;5056579;28;20428;-62
2022/03/22 06:02:39;;;;;;;25.88;19.80;;;;;;;;;;5056372;28;20804;-61
2022/03/22 06:05:08;;;;;;;23.27;18.77;;;;;;;;;;5055931;28;20384;-62
2022/03/22 06:07:34;;;;;;;24.40;17.67;;;;;;;;;;5056236;28;20498;-62
2022/03/22 06:09:59;;;;;;;22.55;17.30;;;;;;;;;;5056155;28;20865;-62
2022/03/22 06:12:26;;;;;;;24.08;18.95;;;;;;;;;;5056669;28;20385;-62
2022/03/22 06:15:14;;;;;;;23.52;19.33;;;;;;;;;;5055534;28;20400;-63
2022/03/22 06:17:38;;;;;;;21.42;16.02;;;;;;;;;;5055114;28;20393;-63
2022/03/22 06:20:04;;;;;;;22.17;14.32;;;;;;;;;;5055553;28;20858;-63
2022/03/22 06:22:30;;;;;;;21.10;17.25;;;;;;;;;;5055191;28;20377;-64
2022/03/22 06:24:56;;;;;;;22.50;15.80;;;;;;;;;;5037183;28;20878;-63
2022/03/22 06:27:22;;;;;;;19.38;13.85;;;;;;;;;;5054922;28;20880;-63
2022/03/22 06:29:48;;;;;;;20.27;13.95;;;;;;;;;;5054815;28;20389;-62
2022/03/22 06:32:14;;;;;;;19.33;13.37;;;;;;;;;;5055284;28;20421;-63
2022/03/22 06:34:40;;;;;;;20.17;14.40;;;;;;;;;;5054646;28;20409;-63
2022/03/22 06:37:06;;;;;;;18.02;13.32;;;;;;;;;;5054866;28;20411;-63
2022/03/22 06:39:32;;;;;;;18.07;14.33;;;;;;;;;;5054744;28;20432;-63
2022/03/22 06:41:58;;;;;;;19.92;13.80;;;;;;;;;;5054463;28;20416;-63
2022/03/22 06:44:24;;;;;;;15.82;13.93;;;;;;;;;;5055348;28;20862;-64
2022/03/22 06:46:50;;;;;;;16.67;11.90;;;;;;;;;;5055959;28;20190;-64
2022/03/22 06:49:16;;;;;;;17.37;12.27;;;;;;;;;;5056139;28;20185;-64
2022/03/22 06:51:42;;;;;;;15.60;11.23;;;;;;;;;;5055670;28;20224;-62
2022/03/22 06:54:07;;;;;;;17.10;12.20;;;;;;;;;;5056040;28;20178;-64
2022/03/22 06:56:33;;;;;;;15.23;11.07;;;;;;;;;;5056495;28;20218;-64
2022/03/22 06:58:59;;;;;;;13.27;11.03;;;;;;;;;;5056549;28;20179;-63
2022/03/22 07:01:25;;;;;;;15.00;11.40;;;;;;;;;;5056263;28;20177;-63
2022/03/22 07:03:52;;;;;;;14.80;11.10;;;;;;;;;;5056158;28;20217;-64
2022/03/22 07:06:18;;;;;;;16.20;11.27;;;;;;;;;;5038671;28;20189;-63
2022/03/22 07:08:44;;;;;;;14.50;11.30;;;;;;;;;;5038344;28;20202;-62
2022/03/22 07:13:54;;;;;;;16.43;11.57;;;;;;;;;;5056201;28;20186;-64
2022/03/22 07:16:20;;;;;;;16.80;11.70;;;;;;;;;;5037948;28;20206;-64
2022/03/22 07:18:46;;;;;;;13.63;10.47;;;;;;;;;;5055473;28;20181;-64
2022/03/22 07:21:12;;;;;;;14.53;11.33;;;;;;;;;;5055933;28;20561;-64
2022/03/22 07:23:39;;;;;;;12.53;10.90;;;;;;;;;;5055776;28;20178;-63
2022/03/22 07:26:05;;;;;;;15.87;10.97;;;;;;;;;;5037718;28;20182;-63
2022/03/22 07:28:31;;;;;;;17.57;10.97;;;;;;;;;;5055006;28;20564;-63
2022/03/22 07:30:57;;;;;;;13.70;10.70;;;;;;;;;;5055651;28;20178;-63
2022/03/22 07:33:23;;;;;;;13.33;11.00;;;;;;;;;;5055716;28;20247;-63
2022/03/22 07:35:49;;;;;;;17.33;10.70;;;;;;;;;;5055348;28;20616;-63
2022/03/22 07:38:15;;;;;;;14.60;10.70;;;;;;;;;;5037790;28;20579;-63
2022/03/22 07:40:41;;;;;;;16.93;11.60;;;;;;;;;;5037452;28;20654;-63
2022/03/22 07:43:07;;;;;;;15.47;10.87;;;;;;;;;;5055849;28;20703;-63
2022/03/22 07:45:33;;;;;;;13.47;10.03;;;;;;;;;;5055219;28;20186;-63
2022/03/22 07:47:59;;;;;;;15.67;10.40;;;;;;;;;;5055249;28;20209;-66
2022/03/22 07:53:10;;;;;;;13.23;10.80;;;;;;;;;;5055483;28;20267;-63
2022/03/22 07:55:37;;;;;;;14.10;11.07;;;;;;;;;;5055442;28;20190;-64
2022/03/22 07:58:07;;;;;;;14.60;10.53;;;;;;;;;;5037003;28;20686;-64
2022/03/22 08:00:35;;;;;;;13.97;10.00;;;;;;;;;;5054817;28;20182;-64
2022/03/22 08:03:03;;;;;;;12.37;10.23;;;;;;;;;;5055441;28;20171;-64
2022/03/22 08:05:29;;;;;;;13.53;10.53;;;;;;;;;;5037582;28;20185;-63
2022/03/22 08:07:55;;;;;;;13.83;10.83;;;;;;;;;;5037415;28;20202;-63
2022/03/22 08:10:22;;;;;;;19.13;10.40;;;;;;;;;;5036955;28;20178;-64
2022/03/22 08:12:48;;;;;;;14.97;10.70;;;;;;;;;;5054650;28;20315;-63
2022/03/22 08:15:14;;;;;;;14.60;9.80;;;;;;;;;;5055141;28;20666;-64
2022/03/22 08:17:40;;;;;;;13.47;10.23;;;;;;;;;;5056261;28;20197;-63
2022/03/22 08:20:07;;;;;;;14.30;10.17;;;;;;;;;;5055421;28;20171;-64
2022/03/22 08:22:33;;;;;;;15.83;11.00;;;;;;;;;;5059808;28;20178;-63
2022/03/22 08:25:00;;;;;;;12.87;10.07;;;;;;;;;;5054673;28;20182;-63
2022/03/22 08:27:26;;;;;;;15.23;10.50;;;;;;;;;;5054616;28;20666;-63
2022/03/22 08:29:51;;;;;;;15.27;10.50;;;;;;;;;;5055574;28;20193;-63
2022/03/22 08:32:18;;;;;;;16.40;11.40;;;;;;;;;;5037162;28;20182;-64
2022/03/22 08:34:43;;;;;;;13.27;10.57;;;;;;;;;;5054908;28;20577;-63
2022/03/22 08:37:11;;;;;;;15.10;10.40;;;;;;;;;;5037110;28;20202;-63
2022/03/22 08:39:37;;;;;;;14.50;10.33;;;;;;;;;;5036847;28;20174;-63
2022/03/22 08:42:03;;;;;;;11.40;10.23;;;;;;;;;;5036696;28;20282;-64
2022/03/22 08:44:29;;;;;;;11.33;10.13;;;;;;;;;;5054302;28;20178;-63
2022/03/22 08:46:55;;;;;;;16.37;10.20;;;;;;;;;;5054630;28;20202;-63
2022/03/22 08:49:21;;;;;;;15.50;10.73;;;;;;;;;;5055045;28;20551;-63
2022/03/22 08:51:49;;;;;;;12.00;9.90;;;;;;;;;;5054942;28;20622;-63
2022/03/22 08:54:17;;;;;;;13.37;9.97;;;;;;;;;;5036774;28;20178;-65
2022/03/22 08:56:43;;;;;;;12.70;10.40;;;;;;;;;;5036325;28;20230;-64
2022/03/22 08:59:09;;;;;;;16.30;10.23;;;;;;;;;;5055444;28;20520;-64
2022/03/22 09:01:35;;;;;;;13.17;10.30;;;;;;;;;;5063019;28;20181;-64
2022/03/22 09:06:46;;;;;;;13.80;10.57;;;;;;;;;;5068255;28;20229;-63
2022/03/22 09:09:13;;;;;;;23.07;10.23;;;;;;;;;;5062869;28;20642;-63
2022/03/22 09:11:39;;;;;;;15.23;10.47;;;;;;;;;;5058320;28;20182;-63
2022/03/22 09:14:05;;;;;;;14.83;10.63;;;;;;;;;;5041008;28;20182;-63
2022/03/22 09:16:32;;;;;;;13.63;10.60;;;;;;;;;;5058047;28;20692;-63
2022/03/22 09:18:58;;;;;;;11.40;9.87;;;;;;;;;;5058427;28;20209;-63
2022/03/22 09:21:24;;;;;;;13.27;10.70;;;;;;;;;;5058096;28;20167;-63
2022/03/22 09:23:50;;;;;;;13.50;10.43;;;;;;;;;;5058516;28;20224;-63
2022/03/22 09:26:16;;;;;;;12.27;9.47;;;;;;;;;;5057733;28;20245;-63
2022/03/22 09:28:42;;;;;;;12.93;10.23;;;;;;;;;;5057718;28;20199;-63
2022/03/22 09:31:08;;;;;;;13.90;10.23;;;;;;;;;;5039999;28;20296;-63
2022/03/22 09:33:34;;;;;;;15.70;10.07;;;;;;;;;;5057902;28;20179;-63
2022/03/22 09:36:01;;;;;;;12.53;9.60;;;;;;;;;;5057304;28;20263;-63
2022/03/22 09:38:27;;;;;;;14.50;11.07;;;;;;;;;;5057579;28;20213;-64
2022/03/22 09:40:54;;;;;;;16.67;11.17;;;;;;;;;;5057241;28;20174;-64
2022/03/22 09:43:22;;;;;;;14.53;11.60;;;;;;;;;;5057350;28;20198;-63
2022/03/22 09:45:50;;;;;;;15.07;10.33;;;;;;;;;;5058246;28;20215;-63
2022/03/22 09:48:17;;;;;;;14.73;9.37;;;;;;;;;;5041040;28;20247;-62
2022/03/22 09:53:27;;;;;;;12.23;9.03;;;;;;;;;;5057848;28;20201;-62
2022/03/22 09:55:54;;;;;;;13.07;9.77;;;;;;;;;;5057487;28;20658;-62
2022/03/22 09:58:20;;;;;;;10.87;9.53;;;;;;;;;;5057075;28;20278;-62
2022/03/22 10:00:47;;;;;;;13.30;10.00;;;;;;;;;;5039448;28;20221;-62
2022/03/22 10:03:20;;;;;;;13.27;9.73;;;;;;;;;;5057524;28;20205;-63
2022/03/22 10:05:57;;;;;;;15.53;10.50;;;;;;;;;;5039997;28;20221;-62
2022/03/22 10:08:23;;;;;;;16.17;10.87;;;;;;;;;;5057375;28;20618;-64
2022/03/22 10:10:53;;;;;;;11.77;10.10;;;;;;;;;;5039263;28;20208;-62
2022/03/22 10:13:19;;;;;;;13.50;9.83;;;;;;;;;;5056915;28;20179;-63
2022/03/22 10:15:46;;;;;;;14.50;10.70;;;;;;;;;;5056756;28;20203;-63
2022/03/22 10:18:12;;;;;;;14.13;10.67;;;;;;;;;;5039015;28;20205;-62
2022/03/22 10:20:39;;;;;;;13.83;10.23;;;;;;;;;;5056881;28;20225;-64
2022/03/22 10:23:06;;;;;;;19.53;11.27;;;;;;;;;;5057394;28;20265;-63
2022/03/22 10:25:33;;;;;;;20.40;10.47;;;;;;;;;;5061851;23;20234;-64
2022/03/22 10:28:00;;;;;;;13.93;10.23;;;;;;;;;;5037547;28;20210;-63
2022/03/22 10:30:27;;;;;;;15.57;11.07;;;;;;;;;;5055490;28;20193;-63
2022/03/22 10:32:53;;;;;;;14.10;10.50;;;;;;;;;;5037568;28;20178;-64
2022/03/22 10:35:27;;;;;;;13.17;10.93;;;;;;;;;;5055291;28;20259;-64
2022/03/22 10:38:03;;;;;;;13.40;11.40;;;;;;;;;;5055234;28;20292;-64
2022/03/22 10:40:31;;;;;;;14.07;10.90;;;;;;;;;;5055364;28;20163;-63
2022/03/22 10:42:59;;;;;;;13.33;10.53;;;;;;;;;;5055410;28;20167;-64
2022/03/22 10:45:26;;;;;;;18.00;11.20;;;;;;;;;;5055210;28;20194;-64
2022/03/22 10:47:52;;;;;;;16.87;11.40;;;;;;;;;;5055139;28;20255;-64
2022/03/22 10:50:18;;;;;;;15.10;10.77;;;;;;;;;;5055125;28;20178;-64
2022/03/22 10:52:47;;;;;;;18.97;10.37;;;;;;;;;;5055016;28;20174;-64
2022/03/22 10:55:19;;;;;;;15.23;11.27;;;;;;;;;;5055314;28;20198;-63
2022/03/22 10:57:47;;;;;;;14.50;10.67;;;;;;;;;;5054933;28;20680;-64
2022/03/22 11:00:13;;;;;;;16.87;10.73;;;;;;;;;;5055645;28;20178;-64
2022/03/22 11:02:39;;;;;;;12.30;9.97;;;;;;;;;;5055959;28;20206;-64
2022/03/22 11:05:07;;;;;;;11.87;10.17;;;;;;;;;;5056420;28;20210;-64
2022/03/22 11:07:37;;;;;;;11.57;10.07;;;;;;;;;;5055854;28;20178;-64
2022/03/22 11:10:04;;;;;;;12.90;10.53;;;;;;;;;;5038221;28;20714;-63
2022/03/22 11:12:30;;;;;;;19.33;10.73;;;;;;;;;;5037425;28;20213;-63
2022/03/22 11:14:57;;;;;;;14.27;11.07;;;;;;;;;;5036674;28;20739;-64
2022/03/22 11:17:24;;;;;;;14.33;11.23;;;;;;;;;;5036609;28;20265;-64
2022/03/22 11:19:50;;;;;;;15.17;11.60;;;;;;;;;;5036611;28;20212;-64
2022/03/22 11:22:19;;;;;;;16.87;11.53;;;;;;;;;;5036606;28;20273;-64
2022/03/22 11:24:47;;;;;;;14.70;10.87;;;;;;;;;;5053946;28;20207;-64
2022/03/22 11:27:13;;;;;;;12.10;10.40;;;;;;;;;;5054415;28;20238;-64
2022/03/22 11:29:40;;;;;;;12.73;11.30;;;;;;;;;;5055194;28;20248;-64
2022/03/22 11:34:56;;;;;;;15.23;10.67;;;;;;;;;;5054153;28;20300;-64
2022/03/22 11:37:30;;;;;;;17.63;10.60;;;;;;;;;;5054169;28;20170;-63
2022/03/22 11:42:51;;;;;;;17.13;11.50;;;;;;;;;;5054520;28;20641;-63
2022/03/22 11:45:17;;;;;;;14.23;10.63;;;;;;;;;;5036085;28;20769;-63
2022/03/22 11:47:44;;;;;;;15.43;11.03;;;;;;;;;;5036063;28;20178;-63
2022/03/22 11:50:16;;;;;;;19.73;10.63;;;;;;;;;;5054047;28;20181;-64
2022/03/22 11:52:42;;;;;;;15.27;11.20;;;;;;;;;;5054024;28;20265;-63
2022/03/22 11:55:12;;;;;;;19.83;10.87;;;;;;;;;;5053795;28;20613;-63
2022/03/22 11:57:50;;;;;;;14.97;11.20;;;;;;;;;;5054360;28;20224;-63
2022/03/22 12:00:17;;;;;;;21.73;11.27;;;;;;;;;;5035922;28;20182;-63
2022/03/22 12:02:44;;;;;;;17.13;9.90;;;;;;;;;;5035810;28;20213;-63
2022/03/22 12:05:11;;;;;;;15.20;10.57;;;;;;;;;;5053952;28;20194;-65
2022/03/22 12:07:39;;;;;;;16.33;9.73;;;;;;;;;;5035865;28;20178;-63
2022/03/22 12:10:18;;;;;;;12.03;9.87;;;;;;;;;;5053782;28;20185;-64
2022/03/22 12:12:49;;;;;;;13.13;9.70;;;;;;;;;;5053565;28;20240;-63
2022/03/22 12:15:16;;;;;;;14.47;8.23;;;;;;;;;;5053633;28;20210;-63
2022/03/22 12:17:43;;;;;;;15.57;9.43;;;;;;;;;;5053506;28;20642;-64
2022/03/22 12:20:11;;;;;;;16.93;8.77;;;;;;;;;;5035635;28;20662;-64
2022/03/22 12:22:43;;;;;;;13.37;9.33;;;;;;;;;;5035462;28;20183;-64
2022/03/22 12:25:10;;;;;;;12.80;9.40;;;;;;;;;;5035351;28;20217;-64
2022/03/22 12:27:35;;;;;;;14.33;9.87;;;;;;;;;;5053432;28;20218;-64
2022/03/22 12:30:01;;;;;;;14.40;10.10;;;;;;;;;;5035487;28;20189;-64
2022/03/22 12:32:29;;;;;;;18.30;10.03;;;;;;;;;;5053244;28;20185;-64
2022/03/22 12:34:57;;;;;;;14.80;9.30;;;;;;;;;;5053153;28;20199;-64
2022/03/22 12:37:23;;;;;;;15.33;9.30;;;;;;;;;;5035205;28;20248;-65
2022/03/22 12:39:49;;;;;;;15.63;9.23;;;;;;;;;;5035423;28;20650;-64
2022/03/22 12:42:16;;;;;;;17.07;10.00;;;;;;;;;;5053849;28;20224;-64
2022/03/22 12:44:42;;;;;;;15.97;9.10;;;;;;;;;;5053656;28;20566;-64
2022/03/22 12:47:08;;;;;;;13.70;8.83;;;;;;;;;;5035417;28;20651;-64
2022/03/22 12:49:35;;;;;;;13.77;9.13;;;;;;;;;;5035303;28;20182;-64
2022/03/22 12:52:02;;;;;;;20.33;9.60;;;;;;;;;;5053140;28;20581;-63
2022/03/22 12:54:32;;;;;;;15.80;9.50;;;;;;;;;;5053429;28;20523;-63
2022/03/22 12:57:00;;;;;;;13.80;9.73;;;;;;;;;;5053037;28;20207;-63
2022/03/22 12:59:26;;;;;;;15.63;8.87;;;;;;;;;;5053017;28;20585;-63
2022/03/22 13:01:57;;;;;;;17.07;9.00;;;;;;;;;;5035197;28;20205;-64
2022/03/22 13:04:28;;;;;;;16.43;8.57;;;;;;;;;;5053270;28;20305;-63
2022/03/22 13:06:59;;;;;;;14.87;9.13;;;;;;;;;;5052966;28;20190;-63
2022/03/22 13:12:11;;;;;;;14.93;8.50;;;;;;;;;;5053375;28;20721;-63
2022/03/22 13:17:22;;;;;;;11.80;8.03;;;;;;;;;;5053412;28;20170;-64
2022/03/22 13:19:48;;;;;;;13.23;8.43;;;;;;;;;;5052955;28;20219;-63
2022/03/22 13:22:21;;;;;;;14.60;9.37;;;;;;;;;;5053027;28;20257;-64
2022/03/22 13:24:48;;;;;;;14.57;8.93;;;;;;;;;;5052940;28;20214;-63
2022/03/22 13:27:17;;;;;;;16.00;9.87;;;;;;;;;;5053449;28;20209;-64
2022/03/22 13:29:43;;;;;;;15.80;9.33;;;;;;;;;;5053353;28;20256;-63
2022/03/22 13:32:13;;;;;;;11.57;9.17;;;;;;;;;;5053088;28;20175;-65
2022/03/22 13:34:43;;;;;;;16.50;8.97;;;;;;;;;;5053468;28;20195;-63
2022/03/22 13:37:13;;;;;;;17.07;8.80;;;;;;;;;;5036495;28;20550;-64
2022/03/22 13:39:40;;;;;;;12.53;7.77;;;;;;;;;;5054460;28;20178;-63
2022/03/22 13:42:10;;;;;;;14.03;7.23;;;;;;;;;;5054246;28;20190;-64
2022/03/22 13:44:55;;;;;;;12.10;7.13;;;;;;;;;;5034685;28;20218;-63
2022/03/22 13:47:29;;;;;;;15.60;7.47;;;;;;;;;;5034767;28;20665;-64
2022/03/22 13:49:55;;;;;;;10.47;6.00;;;;;;;;;;5055393;28;20261;-64
2022/03/22 13:52:26;;;;;;;14.03;7.10;;;;;;;;;;5038491;28;20193;-64
2022/03/22 13:54:57;;;;;;;14.37;6.73;;;;;;;;;;5056302;28;20202;-63
2022/03/22 13:57:26;;;;;;;16.23;8.13;;;;;;;;;;5039295;28;20224;-64
2022/03/22 14:00:01;;;;;;;14.27;6.50;;;;;;;;;;5058124;28;20236;-64
2022/03/22 14:02:27;;;;;;;11.23;6.10;;;;;;;;;;5058097;28;20181;-64
2022/03/22 14:04:55;;;;;;;14.93;5.63;;;;;;;;;;5060634;28;20198;-64
2022/03/22 14:07:21;;;;;;;12.60;7.03;;;;;;;;;;5041116;28;20186;-64
2022/03/22 14:09:47;;;;;;;13.23;6.87;;;;;;;;;;5057848;28;20175;-64
2022/03/22 14:12:13;;;;;;;13.60;6.60;;;;;;;;;;5056570;28;20193;-64
2022/03/22 14:14:39;;;;;;;13.77;6.53;;;;;;;;;;5055839;28;20225;-64
2022/03/22 14:17:05;;;;;;;12.43;6.83;;;;;;;;;;5055896;28;20170;-64
2022/03/22 14:19:30;;;;;;;14.03;5.83;;;;;;;;;;5037911;28;20181;-64
2022/03/22 14:21:56;;;;;;;15.10;5.70;;;;;;;;;;5055657;28;20591;-65
2022/03/22 14:24:23;;;;;;;15.93;5.53;;;;;;;;;;5037510;28;20594;-65
2022/03/22 14:26:51;;;;;;;12.43;5.93;;;;;;;;;;5037567;28;20178;-61
2022/03/22 14:29:17;;;;;;;15.80;6.27;;;;;;;;;;5055254;28;20225;-62
2022/03/22 14:31:43;;;;;;;10.47;5.97;;;;;;;;;;5055148;28;20183;-62
2022/03/22 14:34:12;;;;;;;11.87;5.27;;;;;;;;;;5055204;28;20178;-62
2022/03/22 14:36:38;;;;;;;10.37;5.90;;;;;;;;;;5055205;28;20294;-63
2022/03/22 14:39:04;;;;;;;12.27;5.83;;;;;;;;;;5055241;28;20174;-63
2022/03/22 14:41:31;;;;;;;11.48;6.18;;;;;;;;;;5053996;28;20390;-62
2022/03/22 14:43:57;;;;;;;11.82;5.68;;;;;;;;;;5054369;28;20858;-62
2022/03/22 14:46:24;;;;;;;13.57;5.45;;;;;;;;;;5053885;28;20409;-62
2022/03/22 14:48:50;;;;;;;11.03;5.27;;;;;;;;;;5053884;28;20385;-62
2022/03/22 14:54:02;;;;;;;12.03;5.20;;;;;;;;;;5055312;28;20424;-62
2022/03/22 14:54:09;;;;;;;10.43;5.43;;;;;;;;;;5054846;28;20205;-62
2022/03/22 14:59:21;;;;;;;13.97;4.77;;;;;;;;;;5055377;28;20174;-62
2022/03/22 15:01:47;;;;;;;12.07;4.50;;;;;;;;;;5055580;28;20572;-62
2022/03/22 15:04:13;;;;;;;14.43;5.20;;;;;;;;;;5037102;28;20260;-62
2022/03/22 15:06:42;;;;;;;10.63;5.73;;;;;;;;;;5054733;28;20226;-62